Time;durP1;ratioP1;P1;durP2;ratioP2;P2;SDS_P1;SDS_P2;PMS_P1;PMS_P2;Temp;Humidity;BMP_temperature;BMP_pressure;BME280_temperature;BME280_humidity;BME280_pressure;Samples;Min_cycle;Max_cycle;Signal;HPM_P1;HPM_P2
2022/07/05 00:00:03;;;;;;;;;;;28.90;36.30;;;;;;5035208;28;1024;-41
2022/07/05 00:02:30;;;;;;;;;;;29.00;36.30;;;;;;5033988;28;895;-37
2022/07/05 00:04:58;;;;;;;;;;;29.00;36.40;;;;;;5032250;28;925;-37
2022/07/05 00:07:25;;;;;;;;;;;28.90;36.50;;;;;;5034673;28;969;-37
2022/07/05 00:09:53;;;;;;;;;;;28.90;36.50;;;;;;5034663;28;1981;-37
2022/07/05 00:12:21;;;;;;;;;;;28.90;36.60;;;;;;5034909;28;1018;-39
2022/07/05 00:14:48;;;;;;;;;;;28.90;36.40;;;;;;5035084;28;939;-36
2022/07/05 00:17:15;;;;;;;;;;;28.90;36.40;;;;;;5035676;28;1781;-37
2022/07/05 00:19:42;;;;;;;;;;;28.90;36.60;;;;;;5035481;28;1017;-41
2022/07/05 00:22:10;;;;;;;;;;;28.90;36.60;;;;;;5036385;28;1032;-39
2022/07/05 00:24:37;;;;;;;;;;;28.90;36.80;;;;;;5035968;28;874;-36
2022/07/05 00:27:03;;;;;;;;;;;28.90;36.50;;;;;;5035970;28;973;-36
2022/07/05 00:29:30;;;;;;;;;;;28.90;36.60;;;;;;5035969;28;1985;-40
2022/07/05 00:31:57;;;;;;;;;;;28.90;36.60;;;;;;5036368;28;930;-38
2022/07/05 00:34:24;;;;;;;;;;;28.90;36.50;;;;;;5039854;28;996;-39
2022/07/05 00:36:51;;;;;;;;;;;29.00;36.50;;;;;;5039627;28;966;-40
2022/07/05 00:39:19;;;;;;;;;;;28.90;36.50;;;;;;5040408;28;1009;-39
2022/07/05 00:41:45;;;;;;;;;;;28.90;36.50;;;;;;5040012;28;1017;-40
2022/07/05 00:44:13;;;;;;;;;;;29.00;36.50;;;;;;5038941;28;938;-41
2022/07/05 00:46:42;;;;;;;;;;;28.90;36.40;;;;;;5036512;28;1183;-38
2022/07/05 00:49:09;;;;;;;;;;;29.00;36.50;;;;;;5039441;28;1003;-39
2022/07/05 00:51:37;;;;;;;;;;;29.00;36.50;;;;;;5038665;28;2024;-39
2022/07/05 00:54:06;;;;;;;;;;;29.00;36.20;;;;;;5038424;28;984;-40
2022/07/05 00:56:34;;;;;;;;;;;29.10;36.20;;;;;;5038422;28;973;-39
2022/07/05 00:59:01;;;;;;;;;;;29.10;36.10;;;;;;5038865;28;1008;-38
2022/07/05 01:01:28;;;;;;;;;;;29.10;36.00;;;;;;5039124;28;997;-41
2022/07/05 01:03:55;;;;;;;;;;;29.10;36.00;;;;;;5038714;28;1074;-39
2022/07/05 01:06:21;;;;;;;;;;;29.10;36.00;;;;;;5038911;28;1040;-43
2022/07/05 01:08:48;;;;;;;;;;;29.00;36.00;;;;;;5039518;28;953;-37
2022/07/05 01:11:15;;;;;;;;;;;29.00;35.90;;;;;;5039843;28;1981;-36
2022/07/05 01:13:43;;;;;;;;;;;28.90;36.00;;;;;;5039720;28;1002;-37
2022/07/05 01:16:10;;;;;;;;;;;29.00;36.00;;;;;;5039604;28;982;-37
2022/07/05 01:18:37;;;;;;;;;;;29.00;36.00;;;;;;5039125;28;981;-37
2022/07/05 01:21:04;;;;;;;;;;;28.90;36.30;;;;;;5038656;28;978;-40
2022/07/05 01:23:33;;;;;;;;;;;28.80;36.10;;;;;;5038631;28;1247;-37
2022/07/05 01:26:01;;;;;;;;;;;28.80;36.10;;;;;;5039923;28;951;-39
2022/07/05 01:28:27;;;;;;;;;;;28.80;36.10;;;;;;5039920;28;985;-41
2022/07/05 01:30:54;;;;;;;;;;;28.80;36.10;;;;;;5037912;28;1972;-37
2022/07/05 01:33:27;;;;;;;;;;;28.80;36.30;;;;;;5038771;28;1000;-41
2022/07/05 01:35:54;;;;;;;;;;;28.80;36.20;;;;;;5034034;28;1009;-38
2022/07/05 01:38:20;;;;;;;;;;;28.70;36.20;;;;;;5037868;28;921;-40
2022/07/05 01:40:51;;;;;;;;;;;28.70;36.20;;;;;;5037824;28;1000;-42
2022/07/05 01:43:18;;;;;;;;;;;28.70;36.30;;;;;;5037199;28;863;-42
2022/07/05 01:45:45;;;;;;;;;;;28.60;36.30;;;;;;5037796;28;970;-41
2022/07/05 01:48:13;;;;;;;;;;;28.60;36.40;;;;;;5038154;28;978;-41
2022/07/05 01:50:42;;;;;;;;;;;28.60;36.40;;;;;;5038863;28;1902;-38
2022/07/05 01:53:11;;;;;;;;;;;28.60;36.30;;;;;;5038539;28;946;-37
2022/07/05 01:55:37;;;;;;;;;;;28.60;36.40;;;;;;5038439;28;1184;-37
2022/07/05 01:58:06;;;;;;;;;;;28.60;36.20;;;;;;5038820;28;989;-40
2022/07/05 02:00:42;;;;;;;;;;;28.60;36.30;;;;;;5039053;28;1186;-38
2022/07/05 02:03:08;;;;;;;;;;;28.50;36.30;;;;;;5038620;28;946;-36
2022/07/05 02:05:35;;;;;;;;;;;28.50;36.40;;;;;;5038892;28;935;-37
2022/07/05 02:08:02;;;;;;;;;;;28.50;36.30;;;;;;5038185;28;941;-40
2022/07/05 02:10:29;;;;;;;;;;;28.50;36.50;;;;;;5038748;28;1973;-39
2022/07/05 02:12:55;;;;;;;;;;;28.50;36.30;;;;;;5038773;28;971;-36
2022/07/05 02:15:23;;;;;;;;;;;28.60;36.40;;;;;;5037648;28;957;-40
2022/07/05 02:17:50;;;;;;;;;;;28.60;36.20;;;;;;5037716;28;1090;-39
2022/07/05 02:20:17;;;;;;;;;;;28.60;36.20;;;;;;5038345;28;1016;-41
2022/07/05 02:22:45;;;;;;;;;;;28.60;36.10;;;;;;5037934;28;1033;-42
2022/07/05 02:25:12;;;;;;;;;;;28.60;35.90;;;;;;5037320;28;969;-39
2022/07/05 02:27:39;;;;;;;;;;;28.60;36.20;;;;;;5037632;28;978;-40
2022/07/05 02:30:06;;;;;;;;;;;28.40;36.20;;;;;;5037795;28;1906;-40
2022/07/05 02:32:34;;;;;;;;;;;28.50;36.20;;;;;;5038159;28;915;-38
2022/07/05 02:35:01;;;;;;;;;;;28.50;36.30;;;;;;5037652;28;1182;-39
2022/07/05 02:37:29;;;;;;;;;;;28.40;36.40;;;;;;5035784;28;934;-39
2022/07/05 02:39:55;;;;;;;;;;;28.40;36.30;;;;;;5038416;28;1006;-38
2022/07/05 02:42:22;;;;;;;;;;;28.40;36.60;;;;;;5037425;28;993;-42
2022/07/05 02:44:52;;;;;;;;;;;28.40;36.50;;;;;;5038420;28;1787;-39
2022/07/05 02:47:19;;;;;;;;;;;28.50;36.40;;;;;;5037160;28;873;-41
2022/07/05 02:49:47;;;;;;;;;;;28.50;36.20;;;;;;5037959;28;1040;-39
2022/07/05 02:52:14;;;;;;;;;;;28.40;36.20;;;;;;5038041;28;1910;-39
2022/07/05 02:54:40;;;;;;;;;;;28.40;36.40;;;;;;5036926;28;1017;-39
2022/07/05 02:57:07;;;;;;;;;;;28.40;36.30;;;;;;5037899;28;976;-42
2022/07/05 02:59:34;;;;;;;;;;;28.30;36.40;;;;;;5037276;28;993;-38
2022/07/05 03:02:00;;;;;;;;;;;28.30;36.40;;;;;;5037497;28;989;-40
2022/07/05 03:04:27;;;;;;;;;;;28.40;36.40;;;;;;5037368;28;950;-42
2022/07/05 03:06:55;;;;;;;;;;;28.30;36.40;;;;;;5037447;28;1025;-39
2022/07/05 03:09:22;;;;;;;;;;;28.30;36.40;;;;;;5037317;28;997;-38
2022/07/05 03:11:49;;;;;;;;;;;28.20;36.50;;;;;;5037069;28;1894;-38
2022/07/05 03:14:15;;;;;;;;;;;28.20;36.40;;;;;;5038065;28;935;-38
2022/07/05 03:16:44;;;;;;;;;;;28.30;36.30;;;;;;5037689;28;1117;-38
2022/07/05 03:19:11;;;;;;;;;;;28.30;36.40;;;;;;5036689;28;1099;-38
2022/07/05 03:21:37;;;;;;;;;;;28.30;36.30;;;;;;5037724;28;1025;-39
2022/07/05 03:24:06;;;;;;;;;;;28.30;36.40;;;;;;5034812;28;1179;-40
2022/07/05 03:26:32;;;;;;;;;;;28.20;36.40;;;;;;5037609;28;1030;-39
2022/07/05 03:28:59;;;;;;;;;;;28.20;36.40;;;;;;5037375;28;966;-39
2022/07/05 03:31:26;;;;;;;;;;;28.20;36.50;;;;;;5036730;28;1993;-40
2022/07/05 03:33:53;;;;;;;;;;;28.20;36.50;;;;;;5035716;28;985;-39
2022/07/05 03:36:19;;;;;;;;;;;28.10;36.60;;;;;;5035579;28;1020;-42
2022/07/05 03:38:46;;;;;;;;;;;28.10;36.60;;;;;;5034637;28;945;-42
2022/07/05 03:41:14;;;;;;;;;;;28.10;36.50;;;;;;5036099;28;973;-39
2022/07/05 03:43:41;;;;;;;;;;;28.10;36.70;;;;;;5034805;28;898;-42
2022/07/05 03:46:08;;;;;;;;;;;28.10;36.70;;;;;;5035134;28;933;-39
2022/07/05 03:48:34;;;;;;;;;;;28.00;36.80;;;;;;5035539;28;1001;-39
2022/07/05 03:51:01;;;;;;;;;;;28.00;36.90;;;;;;5035035;28;1902;-41
2022/07/05 03:53:28;;;;;;;;;;;28.00;37.00;;;;;;5035959;28;961;-39
2022/07/05 03:55:54;;;;;;;;;;;28.00;36.90;;;;;;5036291;28;966;-36
2022/07/05 03:58:23;;;;;;;;;;;28.00;37.10;;;;;;5036222;28;1841;-42
2022/07/05 04:00:49;;;;;;;;;;;28.10;36.90;;;;;;5035533;28;926;-39
2022/07/05 04:03:16;;;;;;;;;;;28.10;37.00;;;;;;5034730;28;1024;-39
2022/07/05 04:05:43;;;;;;;;;;;28.00;36.90;;;;;;5035605;28;981;-40
2022/07/05 04:08:09;;;;;;;;;;;28.00;36.90;;;;;;5038961;28;1031;-42
2022/07/05 04:10:36;;;;;;;;;;;28.00;36.90;;;;;;5039650;28;1906;-41
2022/07/05 04:13:02;;;;;;;;;;;28.00;37.00;;;;;;5039613;28;925;-39
2022/07/05 04:15:31;;;;;;;;;;;27.90;36.90;;;;;;5039522;28;993;-40
2022/07/05 04:17:57;;;;;;;;;;;27.90;37.00;;;;;;5038368;28;1176;-40
2022/07/05 04:20:25;;;;;;;;;;;27.90;37.20;;;;;;5038238;28;951;-40
2022/07/05 04:22:52;;;;;;;;;;;27.90;37.20;;;;;;5038701;28;973;-41
2022/07/05 04:25:19;;;;;;;;;;;27.90;37.10;;;;;;5038810;28;1001;-40
2022/07/05 04:27:46;;;;;;;;;;;27.90;37.10;;;;;;5040266;28;926;-41
2022/07/05 04:30:13;;;;;;;;;;;27.90;37.20;;;;;;5040069;28;1787;-40
2022/07/05 04:32:41;;;;;;;;;;;27.80;37.40;;;;;;5039857;28;1993;-39
2022/07/05 04:35:08;;;;;;;;;;;27.80;37.50;;;;;;5039494;28;1851;-42
2022/07/05 04:37:35;;;;;;;;;;;27.70;37.60;;;;;;5039276;28;905;-41
2022/07/05 04:40:02;;;;;;;;;;;27.70;37.50;;;;;;5039327;28;1025;-40
2022/07/05 04:42:29;;;;;;;;;;;27.80;37.60;;;;;;5039882;28;1450;-43
2022/07/05 04:44:56;;;;;;;;;;;27.80;37.60;;;;;;5039815;28;986;-40
2022/07/05 04:47:23;;;;;;;;;;;27.80;37.70;;;;;;5039574;28;1032;-41
2022/07/05 04:49:51;;;;;;;;;;;27.70;37.70;;;;;;5038764;28;996;-40
2022/07/05 04:52:17;;;;;;;;;;;27.70;37.80;;;;;;5038845;28;1981;-40
2022/07/05 04:54:44;;;;;;;;;;;27.70;37.90;;;;;;5038718;28;982;-40
2022/07/05 04:57:11;;;;;;;;;;;27.70;37.90;;;;;;5038543;28;993;-40
2022/07/05 04:59:37;;;;;;;;;;;27.70;38.10;;;;;;5037629;28;1001;-38
2022/07/05 05:02:05;;;;;;;;;;;27.70;38.10;;;;;;5037051;28;1061;-41
2022/07/05 05:04:31;;;;;;;;;;;27.60;38.20;;;;;;5036897;28;1006;-40
2022/07/05 05:06:59;;;;;;;;;;;27.70;38.10;;;;;;5036473;28;1051;-38
2022/07/05 05:09:26;;;;;;;;;;;27.70;38.10;;;;;;5036343;28;1005;-39
2022/07/05 05:11:53;;;;;;;;;;;27.70;38.10;;;;;;5036027;28;1923;-43
2022/07/05 05:14:20;;;;;;;;;;;27.70;38.20;;;;;;5036903;28;1017;-40
2022/07/05 05:16:46;;;;;;;;;;;27.70;38.10;;;;;;5036430;28;989;-41
2022/07/05 05:19:13;;;;;;;;;;;27.70;38.10;;;;;;5036270;28;945;-39
2022/07/05 05:21:40;;;;;;;;;;;27.70;38.20;;;;;;5036884;28;941;-40
2022/07/05 05:24:08;;;;;;;;;;;27.70;38.20;;;;;;5036307;28;1155;-39
2022/07/05 05:26:35;;;;;;;;;;;27.70;38.20;;;;;;5037319;28;1002;-42
2022/07/05 05:29:02;;;;;;;;;;;27.70;38.20;;;;;;5035577;28;894;-38
2022/07/05 05:31:28;;;;;;;;;;;27.70;38.30;;;;;;5035633;28;1914;-39
2022/07/05 05:33:55;;;;;;;;;;;27.70;38.20;;;;;;5036713;28;960;-39
2022/07/05 05:36:22;;;;;;;;;;;27.70;38.30;;;;;;5037107;28;1028;-38
2022/07/05 05:38:49;;;;;;;;;;;27.70;38.30;;;;;;5036265;28;761;-38
2022/07/05 05:41:17;;;;;;;;;;;27.80;38.30;;;;;;5035865;28;1000;-40
2022/07/05 05:43:44;;;;;;;;;;;27.80;38.40;;;;;;5036579;28;1065;-41
2022/07/05 05:46:10;;;;;;;;;;;27.80;38.50;;;;;;5036948;28;917;-39
2022/07/05 05:48:37;;;;;;;;;;;27.80;38.50;;;;;;5035575;28;997;-42
2022/07/05 05:51:04;;;;;;;;;;;27.70;38.50;;;;;;5035863;28;1906;-38
2022/07/05 05:53:31;;;;;;;;;;;27.70;38.50;;;;;;5035418;28;990;-41
2022/07/05 05:55:59;;;;;;;;;;;27.80;38.40;;;;;;5035946;28;1005;-38
2022/07/05 05:58:27;;;;;;;;;;;27.80;38.30;;;;;;5035613;28;1012;-42
2022/07/05 06:00:54;;;;;;;;;;;27.80;38.10;;;;;;5035570;28;996;-40
2022/07/05 06:03:20;;;;;;;;;;;27.70;38.00;;;;;;5034901;28;1016;-42
2022/07/05 06:05:47;;;;;;;;;;;27.80;37.90;;;;;;5036406;28;1019;-39
2022/07/05 06:08:14;;;;;;;;;;;27.80;37.60;;;;;;5032450;28;1044;-42
2022/07/05 06:10:41;;;;;;;;;;;27.80;37.80;;;;;;5036255;28;1048;-41
2022/07/05 06:13:09;;;;;;;;;;;27.80;37.90;;;;;;5034909;28;1977;-38
2022/07/05 06:15:37;;;;;;;;;;;27.80;37.70;;;;;;5035797;28;1035;-39
2022/07/05 06:18:04;;;;;;;;;;;27.80;37.90;;;;;;5037738;28;950;-40
2022/07/05 06:20:32;;;;;;;;;;;27.80;37.90;;;;;;5034899;28;1795;-40
2022/07/05 06:22:59;;;;;;;;;;;27.80;37.70;;;;;;5036037;28;1096;-39
2022/07/05 06:25:26;;;;;;;;;;;27.80;37.80;;;;;;5035656;28;998;-42
2022/07/05 06:27:53;;;;;;;;;;;27.90;37.80;;;;;;5034961;28;1011;-39
2022/07/05 06:30:21;;;;;;;;;;;27.80;37.70;;;;;;5034608;28;942;-40
2022/07/05 06:32:50;;;;;;;;;;;27.90;37.50;;;;;;5033859;28;1991;-43
2022/07/05 06:35:17;;;;;;;;;;;27.90;37.50;;;;;;5034299;28;1041;-43
2022/07/05 06:37:44;;;;;;;;;;;27.90;37.70;;;;;;5033854;28;1153;-39
2022/07/05 06:40:11;;;;;;;;;;;27.90;37.70;;;;;;5034141;28;978;-42
2022/07/05 06:42:38;;;;;;;;;;;27.80;37.70;;;;;;5034242;28;953;-41
2022/07/05 06:45:05;;;;;;;;;;;27.90;37.80;;;;;;5033984;28;930;-40
2022/07/05 06:47:32;;;;;;;;;;;27.90;37.80;;;;;;5033581;28;1007;-40
2022/07/05 06:50:02;;;;;;;;;;;27.90;37.70;;;;;;5033414;28;973;-37
2022/07/05 06:52:29;;;;;;;;;;;27.90;38.00;;;;;;5033841;28;1901;-40
2022/07/05 06:54:56;;;;;;;;;;;27.90;37.90;;;;;;5033535;28;973;-41
2022/07/05 06:57:23;;;;;;;;;;;28.00;37.90;;;;;;5033811;28;985;-40
2022/07/05 06:59:50;;;;;;;;;;;28.00;37.60;;;;;;5034492;28;994;-38
2022/07/05 07:02:17;;;;;;;;;;;27.90;37.50;;;;;;5033447;28;1236;-40
2022/07/05 07:04:44;;;;;;;;;;;28.00;37.60;;;;;;5033407;28;870;-39
2022/07/05 07:09:52;;;;;;;;;;;28.10;37.70;;;;;;5014030;28;1743;-39
2022/07/05 07:12:19;;;;;;;;;;;28.00;37.80;;;;;;5013660;28;1906;-41
2022/07/05 07:14:46;;;;;;;;;;;28.00;37.80;;;;;;5012682;28;1005;-40
2022/07/05 07:17:12;;;;;;;;;;;28.10;37.80;;;;;;5013773;28;1005;-43
2022/07/05 07:19:39;;;;;;;;;;;28.20;37.70;;;;;;5013217;28;1009;-42
2022/07/05 07:22:06;;;;;;;;;;;28.20;37.50;;;;;;5012640;28;1369;-42
2022/07/05 07:24:34;;;;;;;;;;;28.20;37.60;;;;;;5012042;28;1041;-44
2022/07/05 07:27:04;;;;;;;;;;;28.30;37.30;;;;;;5012949;28;1001;-44
2022/07/05 07:29:31;;;;;;;;;;;28.30;37.30;;;;;;5012520;28;937;-40
2022/07/05 07:31:58;;;;;;;;;;;28.30;37.30;;;;;;5013524;28;1898;-43
2022/07/05 07:34:26;;;;;;;;;;;28.30;37.40;;;;;;5013526;28;973;-42
2022/07/05 07:36:52;;;;;;;;;;;28.30;37.50;;;;;;5015586;28;945;-40
2022/07/05 07:39:19;;;;;;;;;;;28.30;37.70;;;;;;5016398;28;910;-40
2022/07/05 07:41:47;;;;;;;;;;;28.20;37.80;;;;;;5015480;28;1037;-39
2022/07/05 07:44:14;;;;;;;;;;;28.00;38.00;;;;;;5018982;28;1000;-40
2022/07/05 07:46:41;;;;;;;;;;;28.10;38.30;;;;;;5019097;28;921;-38
2022/07/05 07:49:08;;;;;;;;;;;28.10;38.10;;;;;;5018477;28;994;-38
2022/07/05 07:51:35;;;;;;;;;;;28.00;39.30;;;;;;5018768;28;1985;-40
2022/07/05 07:54:02;;;;;;;;;;;28.00;38.20;;;;;;5018813;28;953;-39
2022/07/05 07:56:29;;;;;;;;;;;28.00;38.40;;;;;;5018302;28;993;-39
2022/07/05 07:58:57;;;;;;;;;;;28.00;38.20;;;;;;5018089;28;692;-40
2022/07/05 08:01:24;;;;;;;;;;;28.00;38.20;;;;;;5017511;28;980;-41
2022/07/05 08:03:51;;;;;;;;;;;27.90;38.30;;;;;;5018452;28;1005;-40
2022/07/05 08:06:18;;;;;;;;;;;28.00;38.40;;;;;;5017200;28;981;-41
2022/07/05 08:08:45;;;;;;;;;;;27.90;38.30;;;;;;5017868;28;933;-39
2022/07/05 08:11:12;;;;;;;;;;;27.90;38.50;;;;;;5018694;28;1842;-39
2022/07/05 08:13:40;;;;;;;;;;;27.90;38.60;;;;;;5018360;28;1902;-39
2022/07/05 08:16:09;;;;;;;;;;;27.90;38.70;;;;;;5017303;28;987;-41
2022/07/05 08:21:32;;;;;;;;;;;27.80;38.60;;;;;;5018278;28;992;-41
2022/07/05 08:23:59;;;;;;;;;;;27.80;38.60;;;;;;5018080;28;1172;-42
2022/07/05 08:26:26;;;;;;;;;;;27.80;38.70;;;;;;5018166;28;1005;-42
2022/07/05 08:28:53;;;;;;;;;;;27.80;38.60;;;;;;5017496;28;946;-38
2022/07/05 08:31:21;;;;;;;;;;;27.80;38.60;;;;;;5017420;28;867;-38
2022/07/05 08:33:48;;;;;;;;;;;27.80;38.60;;;;;;5017135;28;1984;-42
2022/07/05 08:36:14;;;;;;;;;;;27.80;38.70;;;;;;5017303;28;958;-38
2022/07/05 08:38:41;;;;;;;;;;;27.90;38.60;;;;;;5017125;28;1040;-38
2022/07/05 08:41:09;;;;;;;;;;;27.90;38.50;;;;;;5016311;28;1006;-37
2022/07/05 08:43:36;;;;;;;;;;;27.90;38.50;;;;;;5017253;28;942;-40
2022/07/05 08:46:03;;;;;;;;;;;27.90;38.50;;;;;;5016072;28;1017;-40
2022/07/05 08:48:31;;;;;;;;;;;27.90;38.40;;;;;;5016793;28;901;-38
2022/07/05 08:50:59;;;;;;;;;;;28.00;38.30;;;;;;5016522;28;1844;-38
2022/07/05 08:53:26;;;;;;;;;;;28.10;38.10;;;;;;5013797;28;1902;-38
2022/07/05 08:55:52;;;;;;;;;;;28.20;38.10;;;;;;5015095;28;973;-39
2022/07/05 08:58:19;;;;;;;;;;;28.10;37.90;;;;;;5014685;28;993;-39
2022/07/05 09:00:47;;;;;;;;;;;28.20;38.00;;;;;;5015867;28;911;-39
2022/07/05 09:03:14;;;;;;;;;;;28.20;37.90;;;;;;5015540;28;870;-38
2022/07/05 09:05:44;;;;;;;;;;;28.10;37.90;;;;;;5015491;28;1017;-37
2022/07/05 09:08:13;;;;;;;;;;;28.10;38.00;;;;;;5014819;28;936;-38
2022/07/05 09:10:40;;;;;;;;;;;28.10;38.10;;;;;;5014662;28;1160;-38
2022/07/05 09:13:07;;;;;;;;;;;28.10;38.00;;;;;;5015495;28;1906;-38
2022/07/05 09:15:34;;;;;;;;;;;28.20;38.10;;;;;;5015266;28;861;-38
2022/07/05 09:18:00;;;;;;;;;;;28.10;38.00;;;;;;5014310;28;985;-40
2022/07/05 09:20:27;;;;;;;;;;;28.10;38.00;;;;;;5016340;28;855;-39
2022/07/05 09:22:56;;;;;;;;;;;28.10;38.00;;;;;;5015750;28;1011;-42
2022/07/05 09:25:23;;;;;;;;;;;28.10;38.10;;;;;;5015659;28;933;-41
2022/07/05 09:27:51;;;;;;;;;;;28.10;38.10;;;;;;5016414;28;984;-40
2022/07/05 09:30:31;;;;;;;;;;;28.10;38.10;;;;;;5015701;28;981;-41
2022/07/05 09:33:15;;;;;;;;;;;28.10;38.10;;;;;;5013899;28;1981;-38
2022/07/05 09:35:42;;;;;;;;;;;28.10;38.10;;;;;;5015974;28;1000;-38
2022/07/05 09:38:19;;;;;;;;;;;28.10;38.10;;;;;;5015697;28;997;-39
2022/07/05 09:40:47;;;;;;;;;;;28.10;38.20;;;;;;5016979;28;1016;-38
2022/07/05 09:43:14;;;;;;;;;;;28.10;38.20;;;;;;5016575;28;986;-42
2022/07/05 09:45:41;;;;;;;;;;;28.10;38.20;;;;;;5014716;28;1008;-41
2022/07/05 09:48:08;;;;;;;;;;;28.20;38.20;;;;;;5015771;28;981;-37
2022/07/05 09:50:35;;;;;;;;;;;28.20;38.20;;;;;;5017503;28;965;-39
2022/07/05 09:53:01;;;;;;;;;;;28.20;38.30;;;;;;5016979;28;1975;-40
2022/07/05 09:55:30;;;;;;;;;;;28.20;38.20;;;;;;5018062;28;732;-38
2022/07/05 09:57:57;;;;;;;;;;;28.20;38.20;;;;;;5017885;28;1959;-39
2022/07/05 10:00:24;;;;;;;;;;;28.10;38.20;;;;;;5016599;28;958;-38
2022/07/05 10:02:51;;;;;;;;;;;28.10;38.40;;;;;;5016623;28;1008;-38
2022/07/05 10:05:19;;;;;;;;;;;28.10;38.30;;;;;;5014226;28;1021;-42
2022/07/05 10:07:47;;;;;;;;;;;28.10;38.40;;;;;;5015181;28;942;-41
2022/07/05 10:10:15;;;;;;;;;;;28.10;38.30;;;;;;5016210;28;1894;-36
2022/07/05 10:12:44;;;;;;;;;;;28.10;38.30;;;;;;5015537;28;1906;-36
2022/07/05 10:15:11;;;;;;;;;;;28.20;38.30;;;;;;5015341;28;962;-36
2022/07/05 10:17:40;;;;;;;;;;;28.10;38.30;;;;;;5014246;28;992;-36
2022/07/05 10:20:11;;;;;;;;;;;28.10;38.30;;;;;;5013532;28;966;-37
2022/07/05 10:22:39;;;;;;;;;;;28.10;38.30;;;;;;5013534;28;1148;-36
2022/07/05 10:25:06;;;;;;;;;;;28.10;38.30;;;;;;5013245;28;1033;-36
2022/07/05 10:27:33;;;;;;;;;;;28.10;38.20;;;;;;5013151;28;1009;-37
2022/07/05 10:30:02;;;;;;;;;;;28.20;38.30;;;;;;5014337;28;996;-35
2022/07/05 10:32:29;;;;;;;;;;;28.10;38.30;;;;;;5013655;28;1994;-38
2022/07/05 10:34:57;;;;;;;;;;;28.10;38.30;;;;;;5013315;28;1017;-36
2022/07/05 10:37:27;;;;;;;;;;;28.10;38.30;;;;;;5013990;28;987;-36
2022/07/05 10:39:54;;;;;;;;;;;28.20;38.40;;;;;;5014041;28;990;-36
2022/07/05 10:42:21;;;;;;;;;;;28.10;38.90;;;;;;5013453;28;1055;-36
2022/07/05 10:44:48;;;;;;;;;;;28.10;38.30;;;;;;5014275;28;973;-39
2022/07/05 10:47:17;;;;;;;;;;;28.10;38.30;;;;;;5013965;28;894;-39
2022/07/05 10:49:43;;;;;;;;;;;28.10;39.60;;;;;;5012287;28;1036;-38
2022/07/05 10:52:24;;;;;;;;;;;28.10;38.50;;;;;;5012877;28;1002;-38
2022/07/05 10:55:09;;;;;;;;;;;28.10;38.30;;;;;;5012394;28;965;-41
2022/07/05 10:57:36;;;;;;;;;;;28.20;38.50;;;;;;5012576;28;1012;-39
2022/07/05 11:00:05;;;;;;;;;;;28.20;38.50;;;;;;5012718;28;930;-39
2022/07/05 11:02:33;;;;;;;;;;;28.10;38.40;;;;;;5012784;28;949;-40
2022/07/05 11:05:01;;;;;;;;;;;28.10;38.40;;;;;;5013428;28;973;-40
2022/07/05 11:07:46;;;;;;;;;;;28.20;38.30;;;;;;5012831;28;1003;-41
2022/07/05 11:10:13;;;;;;;;;;;28.20;38.30;;;;;;5014523;28;957;-40
2022/07/05 11:12:40;;;;;;;;;;;28.20;38.30;;;;;;5014815;28;1981;-41
2022/07/05 11:15:08;;;;;;;;;;;28.20;38.30;;;;;;5015890;28;873;-41
2022/07/05 11:17:36;;;;;;;;;;;28.20;38.30;;;;;;5015264;28;966;-39
2022/07/05 11:20:08;;;;;;;;;;;28.30;38.30;;;;;;5014970;28;1017;-38
2022/07/05 11:22:35;;;;;;;;;;;28.30;38.20;;;;;;5013235;28;1046;-40
2022/07/05 11:25:04;;;;;;;;;;;28.30;38.20;;;;;;5013339;28;929;-38
2022/07/05 11:27:32;;;;;;;;;;;28.20;38.20;;;;;;5011962;28;1019;-39
2022/07/05 11:29:59;;;;;;;;;;;28.30;38.20;;;;;;5011822;28;985;-38
2022/07/05 11:32:36;;;;;;;;;;;28.30;38.20;;;;;;5011776;28;993;-41
2022/07/05 11:35:14;;;;;;;;;;;28.20;38.30;;;;;;5009014;28;1013;-40
2022/07/05 11:38:15;;;;;;;;;;;28.20;38.30;;;;;;5012445;28;1012;-40
2022/07/05 11:40:42;;;;;;;;;;;28.20;38.30;;;;;;4951800;29;902;-41
2022/07/05 11:43:09;;;;;;;;;;;28.20;38.30;;;;;;4952219;28;848;-42
2022/07/05 11:45:38;;;;;;;;;;;28.30;38.30;;;;;;4979144;28;978;-37
2022/07/05 11:48:05;;;;;;;;;;;28.20;38.20;;;;;;5013189;28;1046;-37
2022/07/05 11:50:35;;;;;;;;;;;28.30;38.20;;;;;;5012664;28;1056;-40
2022/07/05 11:53:02;;;;;;;;;;;28.30;38.20;;;;;;5014197;28;1983;-38
2022/07/05 11:55:30;;;;;;;;;;;28.30;38.20;;;;;;5014249;28;983;-40
2022/07/05 11:57:57;;;;;;;;;;;28.30;38.10;;;;;;5012021;28;989;-38
2022/07/05 12:00:28;;;;;;;;;;;28.30;38.10;;;;;;5012527;28;1064;-38
2022/07/05 12:02:55;;;;;;;;;;;28.40;38.20;;;;;;5014161;28;1001;-37
2022/07/05 12:05:22;;;;;;;;;;;28.40;38.10;;;;;;5012681;28;933;-39
2022/07/05 12:07:51;;;;;;;;;;;28.40;38.20;;;;;;5010832;28;1008;-39
2022/07/05 12:13:06;;;;;;;;;;;28.40;38.00;;;;;;5010625;28;1981;-39
2022/07/05 12:15:33;;;;;;;;;;;28.40;38.00;;;;;;5011281;28;921;-42
2022/07/05 12:18:03;;;;;;;;;;;28.40;38.00;;;;;;5011692;28;1040;-40
2022/07/05 12:20:33;;;;;;;;;;;28.40;38.00;;;;;;5012021;28;934;-39
2022/07/05 12:23:01;;;;;;;;;;;28.40;37.90;;;;;;5010700;28;1137;-36
2022/07/05 12:25:29;;;;;;;;;;;28.40;37.90;;;;;;5012612;28;1058;-41
2022/07/05 12:27:57;;;;;;;;;;;28.50;37.90;;;;;;5011059;28;1087;-40
2022/07/05 12:30:24;;;;;;;;;;;28.50;37.90;;;;;;5020751;28;1016;-36
2022/07/05 12:32:54;;;;;;;;;;;28.50;37.90;;;;;;5014919;28;1020;-36
2022/07/05 12:35:27;;;;;;;;;;;28.50;37.90;;;;;;5015024;28;1004;-36
2022/07/05 12:37:54;;;;;;;;;;;28.50;37.90;;;;;;5015855;28;1111;-36
2022/07/05 12:40:24;;;;;;;;;;;28.50;37.80;;;;;;5014962;28;1005;-36
2022/07/05 12:43:01;;;;;;;;;;;28.50;37.80;;;;;;5016029;28;981;-36
2022/07/05 12:45:27;;;;;;;;;;;28.50;37.80;;;;;;5018476;28;914;-37
2022/07/05 12:47:55;;;;;;;;;;;28.50;37.80;;;;;;5016888;28;969;-35
2022/07/05 12:50:22;;;;;;;;;;;28.50;37.80;;;;;;5017083;28;994;-34
2022/07/05 12:52:58;;;;;;;;;;;28.50;37.80;;;;;;5017543;28;1233;-35
2022/07/05 12:58:18;;;;;;;;;;;28.60;37.70;;;;;;5014439;28;608;-34
2022/07/05 13:00:45;;;;;;;;;;;28.60;37.70;;;;;;5014820;28;1062;-37
2022/07/05 13:03:12;;;;;;;;;;;28.70;37.50;;;;;;5013677;28;1846;-37
2022/07/05 13:05:38;;;;;;;;;;;28.70;37.50;;;;;;5013378;28;958;-37
2022/07/05 13:08:05;;;;;;;;;;;28.70;37.50;;;;;;5013214;28;1012;-37
2022/07/05 13:10:33;;;;;;;;;;;28.70;37.20;;;;;;5014506;28;1017;-37
2022/07/05 13:13:01;;;;;;;;;;;28.60;37.40;;;;;;5014883;28;1001;-37
2022/07/05 13:15:28;;;;;;;;;;;28.60;37.30;;;;;;5015371;28;1971;-38
2022/07/05 13:17:55;;;;;;;;;;;28.60;37.40;;;;;;5014102;28;1001;-39
2022/07/05 13:20:22;;;;;;;;;;;28.50;37.10;;;;;;5014471;28;989;-38
2022/07/05 13:22:49;;;;;;;;;;;28.50;37.00;;;;;;5014613;28;1013;-38
2022/07/05 13:25:16;;;;;;;;;;;28.60;37.00;;;;;;5016863;28;1801;-38
2022/07/05 13:27:44;;;;;;;;;;;28.50;36.80;;;;;;5017852;28;993;-38
2022/07/05 13:30:12;;;;;;;;;;;28.50;36.80;;;;;;5014310;28;1021;-37
2022/07/05 13:32:39;;;;;;;;;;;28.50;36.90;;;;;;5014968;28;948;-38
2022/07/05 13:35:05;;;;;;;;;;;28.60;36.80;;;;;;5015383;28;1902;-39
2022/07/05 13:37:32;;;;;;;;;;;28.50;36.70;;;;;;5015091;28;954;-38
2022/07/05 13:39:59;;;;;;;;;;;28.50;36.60;;;;;;5015175;28;927;-37
2022/07/05 13:42:26;;;;;;;;;;;28.50;36.60;;;;;;5014193;28;1009;-38
2022/07/05 13:44:54;;;;;;;;;;;28.60;36.80;;;;;;5011183;28;961;-38
2022/07/05 13:47:21;;;;;;;;;;;28.50;36.50;;;;;;5014636;28;954;-38
2022/07/05 13:49:47;;;;;;;;;;;28.50;36.60;;;;;;5015406;28;996;-38
2022/07/05 13:52:14;;;;;;;;;;;28.50;36.60;;;;;;5016046;28;1016;-44
2022/07/05 13:54:43;;;;;;;;;;;28.60;36.50;;;;;;5013947;28;1902;-40
2022/07/05 13:57:09;;;;;;;;;;;28.60;36.60;;;;;;5015002;28;899;-42
2022/07/05 13:59:36;;;;;;;;;;;28.50;36.60;;;;;;5014177;28;918;-44
2022/07/05 14:02:04;;;;;;;;;;;28.60;36.60;;;;;;5013283;28;1052;-44
2022/07/05 14:04:33;;;;;;;;;;;28.60;36.60;;;;;;5015389;28;1021;-43
2022/07/05 14:07:00;;;;;;;;;;;28.60;36.60;;;;;;5014800;28;988;-43
2022/07/05 14:09:26;;;;;;;;;;;28.70;37.70;;;;;;5013247;28;985;-44
2022/07/05 14:11:53;;;;;;;;;;;28.60;36.50;;;;;;5014677;28;934;-41
2022/07/05 14:14:20;;;;;;;;;;;28.70;36.50;;;;;;5014502;28;1910;-40
2022/07/05 14:16:47;;;;;;;;;;;28.70;36.40;;;;;;5013755;28;1469;-43
2022/07/05 14:19:15;;;;;;;;;;;28.70;36.40;;;;;;5014796;28;950;-39
2022/07/05 14:21:45;;;;;;;;;;;28.70;36.40;;;;;;5016121;28;1002;-40
2022/07/05 14:24:12;;;;;;;;;;;28.80;36.30;;;;;;5015791;28;1057;-42
2022/07/05 14:26:40;;;;;;;;;;;28.80;36.20;;;;;;5010111;28;1021;-42
2022/07/05 14:29:07;;;;;;;;;;;28.80;36.30;;;;;;5015371;28;1187;-42
2022/07/05 14:31:34;;;;;;;;;;;28.80;36.20;;;;;;5013206;28;1005;-44
2022/07/05 14:34:01;;;;;;;;;;;28.80;36.20;;;;;;5014295;28;1975;-43
2022/07/05 14:36:29;;;;;;;;;;;28.90;36.10;;;;;;5015503;28;992;-39
2022/07/05 14:38:59;;;;;;;;;;;28.90;36.10;;;;;;5014742;28;1025;-44
2022/07/05 14:41:26;;;;;;;;;;;28.90;36.00;;;;;;5014947;28;1013;-42
2022/07/05 14:43:53;;;;;;;;;;;28.90;36.10;;;;;;5013599;28;993;-41
2022/07/05 14:46:20;;;;;;;;;;;28.90;36.00;;;;;;5016439;28;973;-42
2022/07/05 14:48:47;;;;;;;;;;;28.90;35.90;;;;;;5017269;28;1021;-39